Time;durP1;ratioP1;P1;durP2;ratioP2;P2;SDS_P1;SDS_P2;PMS_P1;PMS_P2;Temp;Humidity;BMP_temperature;BMP_pressure;BME280_temperature;BME280_humidity;BME280_pressure;Samples;Min_cycle;Max_cycle;Signal;HPM_P1;HPM_P2
2021/04/04 00:01:28;;;;;;;24.05;10.18;;;;;;;3.10;62.54;100468.09;5048665;28;20049;-80
2021/04/04 00:03:54;;;;;;;28.23;13.63;;;;;;;3.03;62.81;100467.47;5052109;28;20110;-80
2021/04/04 00:06:21;;;;;;;24.25;9.80;;;;;;;3.06;62.84;100463.88;5052378;28;20053;-79
2021/04/04 00:08:48;;;;;;;22.90;10.63;;;;;;;3.04;62.87;100468.31;5053569;28;20472;-80
2021/04/04 00:11:15;;;;;;;28.73;13.20;;;;;;;2.96;63.03;100466.00;5053269;28;20075;-79
2021/04/04 00:13:42;;;;;;;31.75;13.85;;;;;;;2.87;63.21;100467.19;5046107;28;20138;-81
2021/04/04 00:16:09;;;;;;;34.55;15.68;;;;;;;2.81;63.55;100472.66;5046135;28;20051;-80
2021/04/04 00:18:36;;;;;;;40.92;17.05;;;;;;;2.76;63.59;100474.56;5046951;28;20110;-82
2021/04/04 00:21:03;;;;;;;27.92;12.95;;;;;;;2.72;64.00;100466.91;5047210;28;20045;-80
2021/04/04 00:23:30;;;;;;;62.15;27.40;;;;;;;2.67;63.83;100475.75;5047071;28;20053;-81
2021/04/04 00:25:57;;;;;;;58.63;25.90;;;;;;;2.69;63.89;100473.09;5047003;28;20061;-81
2021/04/04 00:28:23;;;;;;;59.20;29.55;;;;;;;2.65;64.20;100466.28;5045837;28;20409;-80
2021/04/04 00:30:50;;;;;;;48.70;21.27;;;;;;;2.58;64.10;100475.25;5045052;28;20102;-79
2021/04/04 00:33:16;;;;;;;39.88;16.27;;;;;;;2.45;64.44;100473.06;5046091;28;20556;-78
2021/04/04 00:35:43;;;;;;;27.92;12.18;;;;;;;2.47;64.48;100470.41;5045184;28;20063;-80
2021/04/04 00:38:10;;;;;;;25.08;10.48;;;;;;;2.45;64.50;100477.44;5045393;28;20139;-80
2021/04/04 00:40:38;;;;;;;22.77;9.57;;;;;;;2.41;64.38;100470.59;5044964;28;20110;-78
2021/04/04 00:43:06;;;;;;;17.35;9.52;;;;;;;2.34;64.67;100474.34;5044531;28;20041;-81
2021/04/04 00:45:35;;;;;;;25.90;13.07;;;;;;;2.22;64.79;100473.03;5046261;28;20114;-79
2021/04/04 00:48:02;;;;;;;44.97;19.45;;;;;;;2.14;65.40;100481.06;5046335;28;20190;-80
2021/04/04 00:50:31;;;;;;;54.13;21.20;;;;;;;2.10;65.37;100480.31;5045565;28;20132;-80
2021/04/04 00:52:58;;;;;;;65.57;27.38;;;;;;;2.04;65.20;100483.16;5045189;28;20128;-81
2021/04/04 00:55:26;;;;;;;55.75;20.13;;;;;;;2.05;65.35;100486.59;5044065;28;20045;-80
2021/04/04 00:57:54;;;;;;;38.25;16.73;;;;;;;1.99;65.83;100497.25;5027044;28;20122;-80
2021/04/04 01:00:25;;;;;;;28.08;14.63;;;;;;;1.97;65.59;100488.63;5043237;28;20064;-81
2021/04/04 01:02:53;;;;;;;21.13;9.98;;;;;;;1.91;65.76;100492.28;5044294;28;20118;-81
2021/04/04 01:05:26;;;;;;;19.63;10.90;;;;;;;1.92;65.65;100491.38;5044896;28;20056;-81
2021/04/04 01:07:56;;;;;;;12.85;9.32;;;;;;;1.87;66.08;100488.94;5045665;28;20136;-80
2021/04/04 01:10:24;;;;;;;17.70;9.23;;;;;;;1.87;66.10;100512.38;5045620;28;20493;-78
2021/04/04 01:12:56;;;;;;;20.10;9.77;;;;;;;1.91;66.13;100500.94;5044917;28;20055;-80
2021/04/04 01:15:30;;;;;;;14.95;7.32;;;;;;;1.88;66.06;100503.66;5045749;28;20049;-81
2021/04/04 01:18:03;;;;;;;23.00;9.52;;;;;;;1.89;66.29;100504.50;5046629;28;20044;-79
2021/04/04 01:20:34;;;;;;;12.50;7.80;;;;;;;1.87;66.42;100501.97;5045983;28;20082;-80
2021/04/04 01:23:28;;;;;;;18.77;9.35;;;;;;;1.87;66.43;100506.28;5045322;28;20060;-80
2021/04/04 01:26:02;;;;;;;18.45;7.45;;;;;;;1.81;66.26;100501.28;5048460;28;20447;-79
2021/04/04 01:28:33;;;;;;;14.98;8.82;;;;;;;1.71;66.56;100499.00;5048324;28;20084;-79
2021/04/04 01:31:00;;;;;;;16.65;9.27;;;;;;;1.68;67.05;100498.25;5048019;28;20045;-78
2021/04/04 01:33:30;;;;;;;17.48;9.27;;;;;;;1.67;66.73;100496.53;5048740;28;20045;-81
2021/04/04 01:36:00;;;;;;;16.88;8.48;;;;;;;1.61;67.09;100489.75;5046372;28;20681;-79
2021/04/04 01:38:30;;;;;;;18.58;9.75;;;;;;;1.62;66.89;100493.22;5045920;28;20096;-80
2021/04/04 01:41:11;;;;;;;17.27;9.75;;;;;;;1.59;66.96;100499.38;5048672;28;20053;-80
2021/04/04 01:43:43;;;;;;;20.73;10.13;;;;;;;1.56;67.48;100490.81;5047585;28;20460;-79
2021/04/04 01:46:11;;;;;;;19.77;8.90;;;;;;;1.54;67.31;100496.06;5047706;28;20053;-80
2021/04/04 01:48:40;;;;;;;17.63;10.35;;;;;;;1.48;67.42;100491.91;5048602;28;20706;-80
2021/04/04 01:51:10;;;;;;;19.73;9.23;;;;;;;1.48;67.95;100494.50;5047749;28;20045;-80
2021/04/04 01:53:37;;;;;;;16.58;9.27;;;;;;;1.42;68.16;100491.22;5048348;28;20053;-79
2021/04/04 01:56:04;;;;;;;18.48;9.38;;;;;;;1.41;68.18;100493.00;5048855;28;20136;-80
2021/04/04 01:58:32;;;;;;;14.73;9.35;;;;;;;1.36;68.33;100489.66;5049000;28;20049;-82
2021/04/04 02:01:01;;;;;;;22.65;11.00;;;;;;;1.37;68.36;100486.19;5046757;28;20356;-79
2021/04/04 02:03:29;;;;;;;22.95;9.88;;;;;;;1.34;68.28;100494.91;5049557;28;20043;-80
2021/04/04 02:05:56;;;;;;;17.35;9.43;;;;;;;1.31;68.77;100497.63;5048105;28;20052;-80
2021/04/04 02:08:26;;;;;;;20.17;7.70;;;;;;;1.34;68.50;100501.88;5046682;28;20078;-79
2021/04/04 02:10:54;;;;;;;15.82;7.93;;;;;;;1.30;68.77;100503.72;5048029;28;20053;-79
2021/04/04 02:13:23;;;;;;;17.10;9.35;;;;;;;1.32;68.63;100507.13;5046919;28;20060;-80
2021/04/04 02:15:51;;;;;;;16.85;8.70;;;;;;;1.31;68.97;100502.84;5046251;28;20053;-80
2021/04/04 02:18:19;;;;;;;19.38;9.98;;;;;;;1.30;69.02;100506.31;5048700;28;20057;-80
2021/04/04 02:20:48;;;;;;;15.85;9.40;;;;;;;1.33;68.63;100508.84;5047197;28;20500;-80
2021/04/04 02:23:16;;;;;;;18.33;9.07;;;;;;;1.34;68.73;100510.53;5048458;28;20151;-80
2021/04/04 02:25:43;;;;;;;16.08;7.60;;;;;;;1.32;68.70;100504.53;5046313;28;20103;-79
2021/04/04 02:28:09;;;;;;;11.00;7.75;;;;;;;1.31;68.91;100509.78;5046365;28;20619;-78
2021/04/04 02:30:36;;;;;;;16.73;9.85;;;;;;;1.33;69.02;100513.19;5046247;28;20144;-78
2021/04/04 02:33:10;;;;;;;20.13;10.82;;;;;;;1.32;69.20;100511.50;5047692;28;20492;-79
2021/04/04 02:35:41;;;;;;;26.35;13.82;;;;;;;1.33;68.92;100515.78;5047102;28;20057;-78
2021/04/04 02:38:12;;;;;;;23.38;10.07;;;;;;;1.28;69.46;100517.69;5047317;28;20116;-80
2021/04/04 02:40:41;;;;;;;23.05;8.48;;;;;;;1.27;69.31;100518.59;5047915;28;20056;-80
2021/04/04 02:43:09;;;;;;;21.40;8.32;;;;;;;1.28;69.56;100517.69;5046645;28;20477;-79
2021/04/04 02:45:37;;;;;;;27.23;8.80;;;;;;;1.27;69.51;100516.81;5029754;28;20102;-80
2021/04/04 02:48:08;;;;;;;15.68;8.20;;;;;;;1.22;69.60;100516.09;5044994;28;20508;-80
2021/04/04 02:50:36;;;;;;;19.27;7.47;;;;;;;1.19;69.66;100517.94;5047334;28;20099;-79
2021/04/04 02:53:05;;;;;;;13.20;7.43;;;;;;;1.13;70.13;100517.25;5047217;28;20147;-79
2021/04/04 02:55:36;;;;;;;14.75;6.00;;;;;;;1.17;69.67;100518.00;5047310;28;20493;-80
2021/04/04 02:58:06;;;;;;;12.57;6.50;;;;;;;1.23;69.55;100512.63;5047225;28;20045;-79
2021/04/04 03:00:34;;;;;;;14.35;8.35;;;;;;;1.24;69.47;100514.34;5046483;28;20057;-79
2021/04/04 03:03:02;;;;;;;14.05;6.85;;;;;;;1.22;69.53;100510.91;5047545;28;20053;-80
2021/04/04 03:05:30;;;;;;;13.25;6.90;;;;;;;1.19;69.67;100511.00;5047602;28;20386;-80
2021/04/04 03:08:01;;;;;;;16.42;8.60;;;;;;;1.17;70.05;100517.13;5048000;28;20057;-79
2021/04/04 03:10:30;;;;;;;13.70;7.13;;;;;;;1.22;69.78;100515.25;5046757;28;20052;-80
2021/04/04 03:12:58;;;;;;;12.18;7.63;;;;;;;1.24;69.66;100518.66;5047425;28;20049;-78
2021/04/04 03:15:26;;;;;;;13.65;7.05;;;;;;;1.23;69.84;100517.81;5047041;28;20053;-80
2021/04/04 03:17:55;;;;;;;15.95;8.57;;;;;;;1.23;69.57;100515.22;5046382;28;20051;-80
2021/04/04 03:20:22;;;;;;;20.05;9.82;;;;;;;1.24;69.75;100513.47;5046398;28;20053;-79
2021/04/04 03:22:50;;;;;;;20.13;9.88;;;;;;;1.27;69.51;100519.41;5047478;28;20570;-80
2021/04/04 03:25:18;;;;;;;21.30;11.15;;;;;;;1.27;69.84;100529.00;5045840;28;20056;-79
2021/04/04 03:27:49;;;;;;;25.73;14.55;;;;;;;1.24;69.76;100529.94;5046808;28;20059;-79
2021/04/04 03:33:00;;;;;;;31.08;12.52;;;;;;;1.24;69.61;100532.53;5046646;28;20088;-81
2021/04/04 03:35:28;;;;;;;33.72;13.63;;;;;;;1.24;69.79;100529.94;5045262;28;20048;-80
2021/04/04 03:37:55;;;;;;;21.27;9.52;;;;;;;1.24;69.74;100524.75;5046026;28;20041;-79
2021/04/04 03:40:22;;;;;;;16.02;8.30;;;;;;;1.24;69.71;100522.13;5046886;28;20045;-79
2021/04/04 03:42:51;;;;;;;16.70;7.47;;;;;;;1.25;69.58;100531.63;5046768;28;20623;-80
2021/04/04 03:45:18;;;;;;;15.80;8.60;;;;;;;1.23;69.75;100533.44;5046569;28;20071;-80
2021/04/04 03:47:48;;;;;;;12.55;7.75;;;;;;;1.29;69.58;100528.03;5044989;28;20441;-80
2021/04/04 03:50:17;;;;;;;15.10;8.55;;;;;;;1.23;69.84;100528.22;5047447;28;20105;-80
2021/04/04 03:52:46;;;;;;;11.35;6.47;;;;;;;1.27;69.33;100534.19;5046026;28;20417;-80
2021/04/04 03:55:16;;;;;;;14.27;5.95;;;;;;;1.22;69.87;100531.72;5045388;28;20501;-80
2021/04/04 03:57:44;;;;;;;15.38;7.97;;;;;;;1.19;69.86;100531.81;5047397;28;20048;-78
2021/04/04 04:00:13;;;;;;;14.68;6.57;;;;;;;1.24;69.53;100527.34;5044959;28;20144;-80
2021/04/04 04:02:43;;;;;;;11.30;6.60;;;;;;;1.28;69.24;100528.09;5045737;28;20052;-81
2021/04/04 04:05:12;;;;;;;17.08;6.05;;;;;;;1.28;69.46;100531.56;5046569;28;20571;-80
2021/04/04 04:07:40;;;;;;;10.98;6.07;;;;;;;1.27;69.34;100534.19;5045786;28;20678;-80
2021/04/04 04:10:08;;;;;;;22.13;9.02;;;;;;;1.27;69.23;100529.00;5047170;28;20523;-79
2021/04/04 04:12:36;;;;;;;21.80;11.07;;;;;;;1.25;69.49;100536.84;5046102;28;20047;-80
2021/04/04 04:15:04;;;;;;;19.52;11.05;;;;;;;1.23;69.59;100536.03;5045729;28;20063;-79
2021/04/04 04:17:33;;;;;;;17.67;8.82;;;;;;;1.26;69.46;100541.16;5046569;28;20427;-79
2021/04/04 04:20:00;;;;;;;20.98;10.43;;;;;;;1.25;69.49;100536.84;5045582;28;20049;-80
2021/04/04 04:22:27;;;;;;;22.85;11.00;;;;;;;1.23;69.72;100543.84;5046252;28;20056;-79
2021/04/04 04:24:54;;;;;;;19.77;11.02;;;;;;;1.25;69.49;100544.63;5046265;28;20049;-79
2021/04/04 04:27:22;;;;;;;25.88;13.40;;;;;;;1.26;69.53;100542.88;5046484;28;20429;-80
2021/04/04 04:29:51;;;;;;;31.80;15.55;;;;;;;1.26;69.56;100541.16;5042247;28;20063;-81
2021/04/04 04:32:20;;;;;;;39.95;19.65;;;;;;;1.25;69.63;100539.44;5046044;28;20520;-79
2021/04/04 04:34:54;;;;;;;26.63;16.45;;;;;;;1.29;69.43;100538.44;5053038;28;20068;-82
2021/04/04 04:37:21;;;;;;;24.58;14.15;;;;;;;1.26;69.31;100535.06;5061724;28;20041;-79
2021/04/04 04:39:49;;;;;;;26.17;15.63;;;;;;;1.30;69.33;100534.94;5062547;28;20109;-80
2021/04/04 04:42:16;;;;;;;25.88;14.60;;;;;;;1.33;69.03;100531.41;5064257;28;20065;-81
2021/04/04 04:44:46;;;;;;;30.98;16.88;;;;;;;1.38;69.05;100539.91;5062537;28;20067;-79
2021/04/04 04:47:14;;;;;;;24.27;12.85;;;;;;;1.42;68.95;100543.28;5053275;28;20041;-79
2021/04/04 04:49:43;;;;;;;23.85;13.55;;;;;;;1.46;68.93;100531.88;5050151;28;20114;-80
2021/04/04 04:52:11;;;;;;;21.60;11.85;;;;;;;1.52;68.75;100534.31;5048381;28;20053;-79
2021/04/04 04:54:41;;;;;;;19.85;14.23;;;;;;;1.65;68.77;100537.38;5048916;28;20053;-80
2021/04/04 04:57:10;;;;;;;19.25;12.38;;;;;;;1.76;68.27;100539.66;5047426;28;20465;-80
2021/04/04 04:59:37;;;;;;;19.05;12.20;;;;;;;1.85;68.18;100542.81;5047514;28;20079;-78
2021/04/04 05:02:06;;;;;;;24.42;14.13;;;;;;;2.11;67.91;100535.94;5052233;28;20186;-80
2021/04/04 05:04:34;;;;;;;26.67;15.38;;;;;;;2.24;67.00;100532.00;5050459;28;20473;-81
2021/04/04 05:07:01;;;;;;;20.85;12.50;;;;;;;2.34;67.02;100534.28;5051681;28;20045;-81
2021/04/04 05:09:29;;;;;;;23.15;13.90;;;;;;;2.52;67.01;100525.84;5051776;28;20497;-78
2021/04/04 05:11:57;;;;;;;22.23;12.10;;;;;;;3.03;65.70;100529.25;5051026;28;20136;-80
2021/04/04 05:14:23;;;;;;;24.23;15.23;;;;;;;3.58;64.13;100532.38;5050602;28;20048;-80
2021/04/04 05:16:53;;;;;;;19.70;10.73;;;;;;;3.98;63.30;100525.56;5051220;28;20105;-79
2021/04/04 05:19:22;;;;;;;23.30;12.85;;;;;;;4.24;62.30;100533.25;5050180;28;20053;-77
2021/04/04 05:21:50;;;;;;;19.08;11.27;;;;;;;4.07;62.06;100528.69;5051796;28;20057;-80
2021/04/04 05:24:16;;;;;;;18.63;12.77;;;;;;;3.82;62.44;100545.41;5049267;28;20136;-80
2021/04/04 05:26:46;;;;;;;17.90;11.02;;;;;;;3.48;62.67;100531.03;5048817;28;20060;-78
2021/04/04 05:29:14;;;;;;;15.93;9.50;;;;;;;3.29;63.01;100543.09;5050533;28;20049;-80
2021/04/04 05:31:48;;;;;;;21.55;12.30;;;;;;;3.10;63.81;100538.56;5049341;28;20049;-79
2021/04/04 05:34:16;;;;;;;16.63;10.20;;;;;;;3.00;64.25;100537.19;5048550;28;20382;-79
2021/04/04 05:36:50;;;;;;;22.10;10.95;;;;;;;2.99;64.31;100541.56;5047857;28;20045;-79
2021/04/04 05:39:21;;;;;;;20.33;9.57;;;;;;;2.86;64.31;100548.13;5049264;28;20168;-81
2021/04/04 05:41:53;;;;;;;13.82;8.77;;;;;;;2.89;64.39;100541.94;5049244;28;20053;-79
2021/04/04 05:44:27;;;;;;;19.50;9.95;;;;;;;2.93;64.47;100551.38;5049316;28;20053;-80
2021/04/04 05:47:05;;;;;;;16.00;10.20;;;;;;;2.92;64.50;100549.66;5049450;28;20049;-81
2021/04/04 05:49:40;;;;;;;17.00;8.27;;;;;;;2.92;64.59;100549.66;5049737;28;20052;-78
2021/04/04 05:52:17;;;;;;;15.18;7.90;;;;;;;2.99;64.60;100556.34;5052357;28;20057;-80
2021/04/04 05:55:17;;;;;;;22.02;11.63;;;;;;;2.96;64.48;100554.72;5051503;28;20489;-80
2021/04/04 05:57:53;;;;;;;16.08;8.68;;;;;;;3.03;64.37;100552.75;5052007;28;20164;-80
2021/04/04 06:00:22;;;;;;;16.33;9.52;;;;;;;3.00;64.64;100558.06;5047523;28;20048;-80
2021/04/04 06:03:45;;;;;;;17.13;9.68;;;;;;;3.14;64.44;100558.41;5048072;28;20051;-81
2021/04/04 06:06:53;;;;;;;17.92;10.02;;;;;;;3.19;64.11;100553.88;4987879;28;20558;-80
2021/04/04 06:09:39;;;;;;;16.17;9.32;;;;;;;3.28;63.96;100559.66;4909821;29;20147;-78
2021/04/04 06:12:19;;;;;;;12.73;7.30;;;;;;;3.32;63.76;100558.66;4908558;29;20103;-80
2021/04/04 06:15:05;;;;;;;17.58;10.18;;;;;;;3.34;63.83;100562.03;4910226;29;20044;-80
2021/04/04 06:17:44;;;;;;;20.88;10.02;;;;;;;3.28;63.69;100567.47;4913874;29;20139;-80
2021/04/04 06:20:28;;;;;;;20.23;11.02;;;;;;;3.45;63.46;100565.09;4912766;29;20055;-79
2021/04/04 06:23:11;;;;;;;13.23;7.55;;;;;;;3.57;63.29;100569.00;4912612;29;20580;-81
2021/04/04 06:25:48;;;;;;;19.20;11.35;;;;;;;3.60;63.05;100569.75;4911365;29;20075;-80
2021/04/04 06:28:23;;;;;;;15.50;9.65;;;;;;;3.64;62.99;100570.47;4911856;29;20099;-80
2021/04/04 06:30:56;;;;;;;;;;;;;;;3.99;62.60;100568.22;4912349;29;20059;-81
2021/04/04 06:33:24;;;;;;;16.10;8.95;;;;;;;3.85;62.46;100573.16;4913718;29;19961;-81
2021/04/04 06:36:06;;;;;;;13.88;7.80;;;;;;;3.85;62.60;100571.38;4924098;28;20050;-79
2021/04/04 06:39:06;;;;;;;15.60;8.80;;;;;;;3.90;62.35;100577.28;4987278;28;20057;-80
2021/04/04 06:41:51;;;;;;;12.85;7.97;;;;;;;4.01;62.01;100574.25;4911171;29;20064;-80
2021/04/04 06:44:30;;;;;;;12.75;7.68;;;;;;;4.16;61.71;100572.75;4913224;29;20056;-79
2021/04/04 06:47:03;;;;;;;14.00;7.35;;;;;;;4.19;61.42;100562.19;4978691;28;20080;-80
2021/04/04 06:49:44;;;;;;;16.85;9.65;;;;;;;4.29;61.52;100565.28;4987118;28;20053;-79
2021/04/04 06:52:31;;;;;;;16.90;11.10;;;;;;;4.42;60.83;100576.94;4989310;28;20050;-80
2021/04/04 06:55:05;;;;;;;12.95;9.13;;;;;;;4.37;60.67;100564.03;4992464;28;20054;-78
2021/04/04 06:57:48;;;;;;;13.07;7.95;;;;;;;4.36;60.42;100569.34;4989070;28;20047;-80
2021/04/04 07:00:20;;;;;;;15.98;8.70;;;;;;;4.28;60.77;100577.50;4985506;28;20054;-81
2021/04/04 07:02:53;;;;;;;20.52;11.18;;;;;;;4.32;60.84;100568.63;4985450;28;20085;-80
2021/04/04 07:05:22;;;;;;;14.45;8.75;;;;;;;4.36;60.63;100567.56;4985800;28;20058;-80
2021/04/04 07:08:27;;;;;;;15.63;7.85;;;;;;;4.52;60.58;100573.03;4986768;28;20054;-80
2021/04/04 07:11:01;;;;;;;18.33;10.73;;;;;;;4.49;59.73;100570.53;4985244;28;20054;-79
2021/04/04 07:14:01;;;;;;;14.73;7.45;;;;;;;4.61;59.30;100571.78;4988526;28;20050;-81
2021/04/04 07:17:02;;;;;;;15.10;8.07;;;;;;;4.59;57.15;100569.22;5038364;28;20041;-79
2021/04/04 07:19:57;;;;;;;10.93;6.57;;;;;;;4.71;57.38;100567.00;5050162;28;20057;-79
2021/04/04 07:22:49;;;;;;;19.25;9.38;;;;;;;4.81;58.13;100572.66;5049265;28;20558;-80
2021/04/04 07:25:28;;;;;;;43.00;18.23;;;;;;;4.99;58.31;100571.88;5044066;28;20069;-80
2021/04/04 07:28:24;;;;;;;19.58;10.80;;;;;;;5.06;56.90;100561.97;5046964;28;20077;-80
2021/04/04 07:30:55;;;;;;;14.32;6.95;;;;;;;5.18;56.30;100571.91;5045860;28;20055;-80
2021/04/04 07:33:34;;;;;;;12.23;8.75;;;;;;;5.14;55.37;100575.59;5045238;28;20044;-79
2021/04/04 07:36:10;;;;;;;15.13;9.32;;;;;;;5.26;55.93;100571.56;5047473;28;20643;-80
2021/04/04 07:38:46;;;;;;;16.23;9.85;;;;;;;5.44;56.17;100573.34;5046541;28;20084;-78
2021/04/04 07:41:21;;;;;;;19.60;11.30;;;;;;;5.52;55.64;100576.44;5045375;28;20045;-78
2021/04/04 07:43:54;;;;;;;13.07;9.05;;;;;;;5.55;54.76;100581.56;5045014;28;20059;-78
2021/04/04 07:46:26;;;;;;;11.00;9.23;;;;;;;5.57;54.28;100588.50;5043585;28;20049;-79
2021/04/04 07:49:15;;;;;;;11.45;7.88;;;;;;;5.73;54.23;100586.88;5044653;28;20047;-79
2021/04/04 07:51:47;;;;;;;13.13;9.00;;;;;;;5.80;53.18;100587.41;5046575;28;20040;-79
2021/04/04 07:54:20;;;;;;;11.52;7.32;;;;;;;5.85;53.51;100583.66;5046963;28;20123;-80
2021/04/04 07:56:52;;;;;;;13.43;7.40;;;;;;;6.09;53.26;100586.91;5050759;28;20847;-79
2021/04/04 07:59:28;;;;;;;14.40;8.93;;;;;;;6.33;53.33;100581.38;5050508;28;20057;-80
2021/04/04 08:02:04;;;;;;;12.77;7.55;;;;;;;6.53;53.06;100584.78;5046570;28;20670;-80
2021/04/04 08:04:39;;;;;;;14.38;9.05;;;;;;;6.57;53.21;100587.19;5044993;28;20056;-79
2021/04/04 08:07:15;;;;;;;18.10;10.05;;;;;;;6.67;52.73;100582.31;5046415;28;20493;-81
2021/04/04 08:09:48;;;;;;;10.65;7.43;;;;;;;6.66;50.36;100581.47;5044799;28;20049;-79
2021/04/04 08:12:24;;;;;;;11.05;6.55;;;;;;;6.66;48.19;100581.47;5045722;28;20695;-79
2021/04/04 08:14:57;;;;;;;9.57;6.30;;;;;;;6.62;47.96;100579.91;5044843;28;20497;-78
2021/04/04 08:17:24;;;;;;;11.88;7.03;;;;;;;6.79;48.65;100583.44;5044632;28;20057;-79
2021/04/04 08:20:00;;;;;;;12.90;8.40;;;;;;;6.97;48.45;100579.00;5046058;28;20045;-78
2021/04/04 08:22:33;;;;;;;15.45;7.65;;;;;;;7.00;48.67;100574.44;5045269;28;20045;-78
2021/04/04 08:25:05;;;;;;;10.77;6.55;;;;;;;7.04;48.67;100581.25;5045666;28;20051;-79
2021/04/04 08:27:37;;;;;;;10.02;5.72;;;;;;;7.04;46.70;100578.63;5044603;28;20068;-79
2021/04/04 08:30:12;;;;;;;21.05;8.98;;;;;;;7.07;44.94;100567.94;5042939;28;20076;-79
2021/04/04 08:32:45;;;;;;;33.15;14.35;;;;;;;7.01;42.86;100570.91;5044460;28;20056;-79
2021/04/04 08:35:26;;;;;;;10.95;5.38;;;;;;;7.02;42.83;100572.63;5049792;28;20059;-81
2021/04/04 08:38:07;;;;;;;10.43;5.18;;;;;;;7.14;42.14;100572.91;5050162;28;20656;-78
2021/04/04 08:40:35;;;;;;;11.80;4.43;;;;;;;7.21;41.99;100566.38;5054162;28;20049;-79
2021/04/04 08:43:03;;;;;;;8.20;3.70;;;;;;;7.32;41.26;100560.56;5051946;28;20068;-77
2021/04/04 08:45:34;;;;;;;9.68;4.15;;;;;;;7.42;41.07;100559.13;5052782;28;20051;-80
2021/04/04 08:48:02;;;;;;;6.70;4.18;;;;;;;7.45;39.15;100558.94;5049126;28;20041;-79
2021/04/04 08:50:32;;;;;;;7.93;4.07;;;;;;;7.43;39.66;100550.28;5048730;28;20049;-79
2021/04/04 08:53:06;;;;;;;7.05;4.38;;;;;;;7.55;39.80;100554.88;5051810;28;20075;-80
2021/04/04 08:55:33;;;;;;;11.20;5.95;;;;;;;7.57;38.18;100549.53;5050612;28;20106;-78
2021/04/04 08:58:03;;;;;;;11.27;4.38;;;;;;;7.68;38.27;100546.31;5051830;28;20480;-79
2021/04/04 09:00:33;;;;;;;7.45;2.70;;;;;;;7.94;38.49;100545.72;5049364;28;20055;-80
2021/04/04 09:03:05;;;;;;;6.75;3.33;;;;;;;8.20;37.39;100541.56;5054500;28;20178;-80
2021/04/04 09:05:33;;;;;;;5.57;2.65;;;;;;;8.06;35.27;100531.00;5050685;28;20045;-78
2021/04/04 09:08:03;;;;;;;11.23;5.05;;;;;;;8.06;34.46;100523.09;5051235;28;20061;-80
2021/04/04 09:10:32;;;;;;;2.80;1.95;;;;;;;8.04;35.15;100522.34;5053273;28;20599;-79
2021/04/04 09:12:59;;;;;;;4.85;2.17;;;;;;;8.06;35.01;100523.09;5045356;28;20136;-81
2021/04/04 09:15:27;;;;;;;6.57;3.17;;;;;;;8.07;35.16;100519.53;5046712;28;20049;-80
2021/04/04 09:17:56;;;;;;;9.32;4.15;;;;;;;8.21;35.66;100521.34;5048313;28;20057;-79
2021/04/04 09:20:31;;;;;;;15.90;7.80;;;;;;;8.18;34.18;100527.66;5048925;28;20547;-80
2021/04/04 09:23:01;;;;;;;15.05;7.00;;;;;;;8.21;35.34;100521.34;5054438;28;20046;-79
2021/04/04 09:25:29;;;;;;;17.98;7.82;;;;;;;8.23;36.74;100520.34;5046650;28;20132;-79
2021/04/04 09:27:58;;;;;;;6.65;3.53;;;;;;;8.28;36.11;100516.59;5046152;28;20586;-79
2021/04/04 09:30:34;;;;;;;6.35;2.65;;;;;;;8.34;34.89;100516.25;5045151;28;20140;-80
2021/04/04 09:33:03;;;;;;;4.55;1.90;;;;;;;8.38;34.42;100512.50;5046824;28;20049;-80
2021/04/04 09:35:30;;;;;;;4.13;2.40;;;;;;;8.32;34.35;100518.09;5044943;28;20580;-81
2021/04/04 09:38:03;;;;;;;6.20;2.80;;;;;;;8.33;35.01;100512.75;5046487;28;20105;-79
2021/04/04 09:40:33;;;;;;;9.25;3.90;;;;;;;8.46;35.90;100518.16;5047655;28;20111;-79
2021/04/04 09:43:11;;;;;;;5.40;2.88;;;;;;;8.64;35.86;100512.75;5046324;28;20136;-80
2021/04/04 09:45:38;;;;;;;2.40;1.80;;;;;;;8.97;36.40;100508.06;5049473;28;20061;-82
2021/04/04 09:48:22;;;;;;;6.47;3.30;;;;;;;9.17;34.71;100512.09;5046607;28;20109;-81
2021/04/04 09:50:50;;;;;;;6.57;3.75;;;;;;;8.99;34.32;100505.34;5049598;28;20180;-79
2021/04/04 09:53:38;;;;;;;4.18;2.05;;;;;;;9.00;35.64;100514.91;5050346;28;20109;-80
2021/04/04 09:56:10;;;;;;;6.88;3.67;;;;;;;9.33;35.17;100504.06;5045154;28;20057;-78
2021/04/04 09:58:41;;;;;;;7.60;3.22;;;;;;;9.52;35.46;100503.72;5054214;28;20053;-79
2021/04/04 10:01:19;;;;;;;4.95;2.58;;;;;;;9.71;35.42;100498.13;5047743;28;20049;-80
2021/04/04 10:03:56;;;;;;;5.38;2.67;;;;;;;9.54;32.50;100499.22;5045346;28;20057;-79
2021/04/04 10:06:23;;;;;;;6.13;3.28;;;;;;;9.23;33.54;100499.47;5048143;28;20045;-78
2021/04/04 10:08:54;;;;;;;9.90;4.13;;;;;;;8.94;34.76;100497.69;5046646;28;20446;-80
2021/04/04 10:11:23;;;;;;;4.65;2.95;;;;;;;8.97;34.32;100500.16;5046685;28;20045;-79
2021/04/04 10:13:49;;;;;;;4.80;2.92;;;;;;;8.91;35.11;100494.41;5051996;28;20045;-79
2021/04/04 10:16:21;;;;;;;6.25;2.80;;;;;;;8.99;34.71;100487.72;5045642;28;20048;-79
2021/04/04 10:19:01;;;;;;;4.28;2.83;;;;;;;9.04;34.94;100489.22;5046851;28;20071;-79
2021/04/04 10:21:27;;;;;;;7.55;3.78;;;;;;;8.82;36.08;100482.66;5048688;28;20528;-79
2021/04/04 10:23:54;;;;;;;6.18;3.17;;;;;;;8.71;35.93;100482.47;5050278;28;20329;-77
2021/04/04 10:26:23;;;;;;;8.13;2.95;;;;;;;8.94;35.72;100487.16;5047670;28;20052;-80
2021/04/04 10:28:54;;;;;;;3.45;2.25;;;;;;;9.21;35.45;100478.47;5047010;28;20049;-80
2021/04/04 10:31:22;;;;;;;5.45;2.45;;;;;;;9.30;34.87;100477.88;5042048;28;20056;-77
2021/04/04 10:34:00;;;;;;;7.18;2.97;;;;;;;9.17;34.75;100484.91;5042666;28;20051;-79
2021/04/04 10:36:28;;;;;;;2.97;2.38;;;;;;;9.12;34.63;100474.63;5044667;28;20053;-79
2021/04/04 10:38:55;;;;;;;6.57;3.55;;;;;;;9.55;34.67;100474.53;5044989;28;20121;-81
2021/04/04 10:41:28;;;;;;;3.67;2.55;;;;;;;9.68;33.07;100466.66;5044940;28;20456;-80
2021/04/04 10:43:54;;;;;;;7.15;3.85;;;;;;;9.82;33.72;100462.28;5044383;28;20063;-78
2021/04/04 10:46:25;;;;;;;4.10;2.05;;;;;;;10.14;33.97;100463.63;5046382;28;20102;-82
2021/04/04 10:48:52;;;;;;;6.78;2.05;;;;;;;10.00;32.25;100442.59;5046501;28;20137;-79
2021/04/04 10:51:21;;;;;;;4.28;1.90;;;;;;;10.08;32.91;100449.97;5046671;28;20526;-80
2021/04/04 10:53:49;;;;;;;4.95;2.20;;;;;;;10.39;33.04;100456.72;5047474;28;20162;-79
2021/04/04 10:56:16;;;;;;;3.85;2.08;;;;;;;10.16;32.20;100454.75;5047123;28;20060;-79
2021/04/04 10:58:45;;;;;;;3.20;1.95;;;;;;;9.81;32.56;100452.66;5046583;28;20056;-78
2021/04/04 11:01:13;;;;;;;3.05;1.08;;;;;;;9.60;32.62;100445.22;5044759;28;20049;-80
2021/04/04 11:03:41;;;;;;;3.90;2.03;;;;;;;9.56;33.07;100449.00;5046771;28;20053;-80
2021/04/04 11:06:08;;;;;;;5.40;2.03;;;;;;;10.07;32.81;100435.94;5048250;28;20051;-80
2021/04/04 11:08:34;;;;;;;2.53;1.35;;;;;;;10.54;31.96;100436.31;5047688;28;20086;-81
2021/04/04 11:11:02;;;;;;;2.35;1.27;;;;;;;10.43;31.29;100429.13;5046372;28;20110;-81
2021/04/04 11:13:29;;;;;;;3.70;2.20;;;;;;;10.42;32.06;100424.78;5047797;28;20106;-80
2021/04/04 11:16:00;;;;;;;3.75;2.03;;;;;;;10.00;31.35;100426.75;5025553;28;20053;-80
2021/04/04 11:18:30;;;;;;;3.85;2.00;;;;;;;9.69;32.55;100423.53;5045654;28;20049;-80
2021/04/04 11:21:03;;;;;;;4.53;2.20;;;;;;;9.44;32.61;100429.56;5044464;28;20087;-81
2021/04/04 11:23:30;;;;;;;3.28;1.80;;;;;;;9.30;32.79;100426.97;5044708;28;20486;-80
2021/04/04 11:25:57;;;;;;;5.20;2.55;;;;;;;9.16;32.80;100425.22;5047352;28;20326;-79
2021/04/04 11:28:25;;;;;;;4.20;2.75;;;;;;;9.14;33.11;100422.66;5046620;28;20202;-79
2021/04/04 11:30:53;;;;;;;6.63;2.88;;;;;;;9.02;32.99;100420.84;5046252;28;20049;-81
2021/04/04 11:33:23;;;;;;;3.03;1.23;;;;;;;9.38;32.98;100407.09;5046791;28;20080;-80
2021/04/04 11:36:07;;;;;;;4.45;2.40;;;;;;;9.87;32.34;100404.78;5046333;28;20065;-80
2021/04/04 11:38:36;;;;;;;3.95;2.15;;;;;;;10.02;33.22;100401.09;5046329;28;20049;-79
2021/04/04 11:41:14;;;;;;;4.65;2.40;;;;;;;10.20;32.63;100398.16;5046448;28;20049;-80
2021/04/04 11:43:42;;;;;;;3.53;2.58;;;;;;;10.11;32.73;100402.28;5045063;28;20053;-79
2021/04/04 11:46:41;;;;;;;8.98;3.60;;;;;;;9.84;32.89;100397.91;5047249;28;20063;-79
2021/04/04 11:49:40;;;;;;;4.57;2.20;;;;;;;9.53;33.28;100396.47;5049381;28;20611;-80